Time;durP1;ratioP1;P1;durP2;ratioP2;P2;SDS_P1;SDS_P2;PMS_P1;PMS_P2;Temp;Humidity;BMP_temperature;BMP_pressure;BME280_temperature;BME280_humidity;BME280_pressure;Samples;Min_cycle;Max_cycle;Signal;HPM_P1;HPM_P2
2022/09/21 00:05:48;;;;;;;5.78;4.35;;;22.60;63.50;;;;;;20831152;28;20093;-56
2022/09/21 00:15:49;;;;;;;6.78;3.80;;;22.70;62.30;;;;;;20829863;28;20409;-55
2022/09/21 00:25:50;;;;;;;7.15;3.72;;;22.90;59.70;;;;;;20830190;28;20465;-54
2022/09/21 00:35:52;;;;;;;5.38;3.55;;;23.00;57.80;;;;;;20828253;28;20057;-55
2022/09/21 00:46:01;;;;;;;6.32;3.30;;;23.10;57.50;;;;;;20828419;28;20476;-56
2022/09/21 00:56:04;;;;;;;5.85;3.63;;;23.10;57.10;;;;;;20828011;28;20555;-57
2022/09/21 01:06:05;;;;;;;;;;;23.10;57.20;;;;;;20835550;28;20077;-56
2022/09/21 01:16:14;;;;;;;6.10;3.88;;;23.00;57.00;;;;;;20842850;28;19921;-55
2022/09/21 01:26:49;;;;;;;6.72;3.60;;;23.00;57.70;;;;;;20842002;28;20084;-55
2022/09/21 01:36:56;;;;;;;4.80;3.72;;;22.90;58.00;;;;;;20840032;28;20061;-56
2022/09/21 01:47:05;;;;;;;5.53;4.22;;;22.90;58.50;;;;;;20840857;28;20482;-55
2022/09/21 01:57:19;;;;;;;6.38;4.40;;;22.60;59.60;;;;;;20839518;28;20056;-55
2022/09/21 02:07:23;;;;;;;8.02;3.85;;;22.40;60.70;;;;;;20839094;28;20045;-55
2022/09/21 02:17:35;;;;;;;5.32;3.90;;;22.20;61.90;;;;;;20836458;28;20064;-53
2022/09/21 02:27:40;;;;;;;6.13;4.00;;;22.00;62.60;;;;;;20837099;28;20119;-54
2022/09/21 02:37:55;;;;;;;5.50;3.78;;;21.70;63.50;;;;;;20835238;28;20192;-54
2022/09/21 02:48:06;;;;;;;5.50;3.40;;;21.50;64.00;;;;;;20834297;28;20060;-55
2022/09/21 02:58:13;;;;;;;5.78;4.03;;;21.30;64.00;;;;;;20835468;28;20058;-55
2022/09/21 03:08:16;;;;;;;5.63;4.03;;;21.20;64.10;;;;;;20833332;28;20049;-56
2022/09/21 03:18:18;;;;;;;6.47;4.13;;;21.20;63.90;;;;;;20833599;28;20402;-56
2022/09/21 03:28:21;;;;;;;5.87;3.90;;;21.20;64.10;;;;;;20833196;28;20049;-55
2022/09/21 03:38:27;;;;;;;4.53;3.55;;;21.10;64.10;;;;;;20831164;28;20056;-55
2022/09/21 03:48:31;;;;;;;5.53;3.10;;;21.00;63.50;;;;;;20830859;28;20107;-55
2022/09/21 03:58:33;;;;;;;4.68;3.30;;;20.90;62.70;;;;;;20829598;28;20060;-56
2022/09/21 04:08:35;;;;;;;4.63;3.22;;;20.70;61.70;;;;;;20829924;28;20050;-55
2022/09/21 04:18:54;;;;;;;4.07;3.15;;;20.60;60.60;;;;;;20829436;28;20045;-55
2022/09/21 04:28:56;;;;;;;5.97;3.03;;;20.50;60.50;;;;;;20829906;28;20149;-55
2022/09/21 04:39:01;;;;;;;5.07;3.23;;;20.40;60.50;;;;;;20832654;28;20053;-55
2022/09/21 04:49:03;;;;;;;4.07;2.90;;;20.30;60.40;;;;;;20844071;28;20138;-55
2022/09/21 04:59:05;;;;;;;7.28;3.65;;;20.20;60.60;;;;;;20843672;28;20050;-55
2022/09/21 05:19:44;;;;;;;4.80;3.40;;;20.20;60.90;;;;;;20827607;28;20057;-54
2022/09/21 05:29:46;;;;;;;5.18;3.17;;;20.20;61.00;;;;;;20842181;28;20057;-55
2022/09/21 05:39:48;;;;;;;6.85;3.50;;;20.10;60.90;;;;;;20840561;28;20390;-54
2022/09/21 05:50:27;;;;;;;8.82;3.25;;;19.90;60.60;;;;;;20838768;28;20053;-55
2022/09/21 06:00:41;;;;;;;8.13;4.50;;;20.00;59.70;;;;;;20839137;28;20049;-56
2022/09/21 06:10:43;;;;;;;6.10;3.20;;;19.90;58.60;;;;;;20838207;28;20045;-56
2022/09/21 06:20:46;;;;;;;6.47;3.90;;;19.90;58.20;;;;;;20836913;28;20099;-54
2022/09/21 06:30:52;;;;;;;9.63;4.13;;;19.90;58.20;;;;;;20836609;28;20215;-56
2022/09/21 06:40:54;;;;;;;8.13;3.67;;;20.00;58.90;;;;;;20835574;28;20478;-55
2022/09/21 06:50:58;;;;;;;8.50;4.88;;;20.00;59.40;;;;;;20835007;28;20482;-55
2022/09/21 07:01:12;;;;;;;6.72;3.97;;;20.10;59.40;;;;;;20833374;28;20053;-55
2022/09/21 07:11:14;;;;;;;8.43;4.00;;;20.20;58.60;;;;;;20832444;28;20049;-55
2022/09/21 07:21:16;;;;;;;12.52;5.28;;;20.50;57.20;;;;;;20833421;28;20046;-56
2022/09/21 07:31:17;;;;;;;6.07;3.10;;;20.70;52.40;;;;;;20831664;28;20053;-55
2022/09/21 07:41:19;;;;;;;9.70;4.47;;;20.90;49.50;;;;;;20831000;28;20057;-56
2022/09/21 07:51:22;;;;;;;7.87;3.27;;;21.20;48.60;;;;;;20831469;28;20140;-55
2022/09/21 08:01:25;;;;;;;8.80;3.60;;;21.40;48.10;;;;;;20812920;28;20050;-55
2022/09/21 08:11:29;;;;;;;;;;;21.60;48.20;;;;;;20830247;28;20305;-55
2022/09/21 08:21:32;;;;;;;7.97;3.30;;;21.90;47.90;;;;;;20829800;28;19967;-56
2022/09/21 08:31:33;;;;;;;9.52;4.10;;;22.20;47.70;;;;;;20829137;28;20095;-56
2022/09/21 08:41:41;;;;;;;8.07;3.55;;;22.60;47.80;;;;;;20828709;28;20136;-56
2022/09/21 08:52:04;;;;;;;8.32;3.80;;;22.80;48.10;;;;;;20829934;28;20535;-56
2022/09/21 09:02:27;;;;;;;6.75;2.90;;;23.10;47.40;;;;;;20827830;28;20075;-57
2022/09/21 09:13:07;;;;;;;7.15;3.08;;;23.90;50.70;;;;;;20809707;28;20050;-53
2022/09/21 09:23:22;;;;;;;5.68;3.28;;;24.50;47.80;;;;;;20784092;28;20491;-55
2022/09/21 09:33:39;;;;;;;10.55;4.90;;;24.70;47.80;;;;;;20798642;28;20057;-55
2022/09/21 09:44:19;;;;;;;9.98;3.92;;;24.90;47.00;;;;;;20799414;28;20041;-55
2022/09/21 09:54:26;;;;;;;12.23;3.72;;;24.60;48.00;;;;;;20426830;29;20051;-55
2022/09/21 10:04:28;;;;;;;10.13;3.35;;;24.80;48.20;;;;;;20425359;28;20083;-55
2022/09/21 10:14:33;;;;;;;7.07;4.00;;;24.80;48.60;;;;;;20412389;29;20070;-55
2022/09/21 10:24:39;;;;;;;9.23;3.72;;;25.00;48.40;;;;;;20473640;28;20061;-54
2022/09/21 10:35:09;;;;;;;6.20;4.40;;;25.10;48.50;;;;;;20835547;28;20049;-54
2022/09/21 10:45:16;;;;;;;7.85;3.85;;;25.20;48.70;;;;;;20795818;28;20050;-54
2022/09/21 10:55:21;;;;;;;9.70;5.18;;;25.30;48.40;;;;;;20793544;28;20042;-56
2022/09/21 11:05:28;;;;;;;6.28;3.47;;;25.50;48.40;;;;;;20793635;28;20402;-53
2022/09/21 11:15:45;;;;;;;4.65;3.30;;;25.60;47.40;;;;;;20799346;28;20144;-55
2022/09/21 11:26:10;;;;;;;8.40;3.30;;;25.70;47.50;;;;;;20790684;28;20491;-56
2022/09/21 11:36:59;;;;;;;7.07;3.88;;;25.90;46.70;;;;;;20791355;28;20409;-53
2022/09/21 11:47:34;;;;;;;8.15;3.70;;;26.10;46.50;;;;;;20539797;28;20428;-53
2022/09/21 11:58:17;;;;;;;9.02;3.60;;;26.20;46.00;;;;;;20537207;28;20054;-58
2022/09/21 12:08:37;;;;;;;11.60;4.38;;;26.60;44.50;;;;;;20455860;29;20055;-55
2022/09/21 12:19:05;;;;;;;6.15;3.78;;;26.70;44.20;;;;;;20673368;28;20054;-56
2022/09/21 12:29:24;;;;;;;7.25;2.70;;;27.00;42.50;;;;;;20724051;28;20145;-55
2022/09/21 12:39:31;;;;;;;3.30;2.45;;;27.20;40.00;;;;;;20764407;28;20060;-55
2022/09/21 12:49:32;;;;;;;6.55;2.72;;;27.50;35.50;;;;;;20828825;28;20525;-55
2022/09/21 12:59:34;;;;;;;6.50;2.85;;;27.70;34.50;;;;;;20832187;28;20054;-56
2022/09/21 13:09:41;;;;;;;4.68;3.20;;;27.90;36.70;;;;;;20842740;28;20057;-56
2022/09/21 13:19:54;;;;;;;12.23;8.10;;;28.10;37.80;;;;;;20842744;28;20049;-55
2022/09/21 13:30:18;;;;;;;7.68;3.42;;;28.10;36.30;;;;;;20841593;28;20065;-56
2022/09/21 13:40:23;;;;;;;5.55;2.80;;;28.10;37.20;;;;;;20840516;28;20058;-56
2022/09/21 13:50:43;;;;;;;4.43;2.83;;;28.20;36.10;;;;;;20840957;28;20046;-55
2022/09/21 14:00:55;;;;;;;5.43;2.70;;;28.40;35.70;;;;;;20839508;28;20145;-56
2022/09/21 14:11:07;;;;;;;5.57;2.95;;;28.50;34.60;;;;;;20837525;28;20474;-56
2022/09/21 14:21:16;;;;;;;3.42;2.67;;;28.70;33.90;;;;;;20837591;28;20140;-55
2022/09/21 14:31:26;;;;;;;6.43;4.28;;;28.70;33.10;;;;;;20836677;28;20080;-55
2022/09/21 14:41:39;;;;;;;2.97;2.38;;;28.80;31.60;;;;;;20836416;28;20136;-55
2022/09/21 14:51:53;;;;;;;3.80;2.55;;;28.60;31.70;;;;;;20835717;28;20068;-56
2022/09/21 15:02:02;;;;;;;4.32;2.75;;;28.60;31.50;;;;;;20834936;28;20063;-55
2022/09/21 15:12:20;;;;;;;5.50;3.67;;;28.70;32.10;;;;;;20834430;28;20405;-55
2022/09/21 15:22:23;;;;;;;5.72;3.30;;;28.70;32.30;;;;;;20832306;28;20049;-57
2022/09/21 15:32:39;;;;;;;8.80;2.85;;;28.70;38.80;;;;;;20831608;28;20117;-58
2022/09/21 15:43:05;;;;;;;6.43;3.22;;;28.70;38.80;;;;;;20831952;28;20077;-55
2022/09/21 15:53:21;;;;;;;7.88;2.72;;;27.80;42.10;;;;;;20814464;28;20470;-55
2022/09/21 16:03:27;;;;;;;9.57;3.60;;;27.30;43.40;;;;;;20831407;28;20096;-58
2022/09/21 16:23:54;;;;;;;5.30;2.90;;;26.70;44.80;;;;;;20829900;28;20510;-56
2022/09/21 16:34:04;;;;;;;7.50;2.97;;;26.60;43.40;;;;;;20831802;28;20057;-57
2022/09/21 16:44:16;;;;;;;12.27;3.55;;;26.50;43.30;;;;;;20847103;28;20065;-57
2022/09/21 16:54:21;;;;;;;4.22;3.47;;;26.60;43.00;;;;;;20831106;28;20050;-56
2022/09/21 17:04:26;;;;;;;5.93;3.22;;;26.70;40.40;;;;;;20800109;28;20048;-55
2022/09/21 17:14:39;;;;;;;5.28;3.03;;;26.60;42.20;;;;;;20808618;28;20041;-58
2022/09/21 17:24:40;;;;;;;7.47;2.60;;;26.50;41.40;;;;;;20801963;28;20049;-55
2022/09/21 17:34:42;;;;;;;3.72;2.80;;;26.30;42.20;;;;;;20798299;28;20417;-56
2022/09/21 17:44:58;;;;;;;6.63;3.28;;;26.20;43.00;;;;;;20807382;28;20056;-55
2022/09/21 17:55:00;;;;;;;5.53;3.45;;;26.20;44.80;;;;;;20797761;28;20050;-55
2022/09/21 18:05:13;;;;;;;8.82;3.67;;;26.20;44.00;;;;;;20796370;28;20417;-54
2022/09/21 18:15:25;;;;;;;5.32;3.95;;;26.20;43.80;;;;;;20817669;28;20045;-56
2022/09/21 18:25:46;;;;;;;12.30;4.13;;;26.20;45.10;;;;;;20833047;28;20057;-55
2022/09/21 18:36:17;;;;;;;5.97;4.10;;;26.20;45.10;;;;;;20815818;28;20158;-56
2022/09/21 18:46:32;;;;;;;9.70;6.30;;;26.20;44.90;;;;;;20779231;28;20438;-56
2022/09/21 18:56:37;;;;;;;9.25;5.25;;;26.10;44.80;;;;;;20794051;28;20065;-57
2022/09/21 19:07:02;;;;;;;7.57;4.72;;;26.10;44.70;;;;;;20821597;28;20405;-57
2022/09/21 19:17:57;;;;;;;7.07;5.10;;;26.10;45.20;;;;;;20833407;28;20056;-58
2022/09/21 19:28:24;;;;;;;9.93;6.55;;;26.00;44.00;;;;;;20828638;28;20413;-57
2022/09/21 19:38:27;;;;;;;5.50;4.30;;;25.60;44.70;;;;;;20832492;28;20133;-57
2022/09/21 19:48:34;;;;;;;6.60;5.18;;;25.50;44.80;;;;;;20830544;28;20591;-55
2022/09/21 20:09:04;;;;;;;8.73;4.78;;;25.20;45.60;;;;;;20829487;28;20041;-55
2022/09/21 20:19:16;;;;;;;6.60;4.43;;;25.10;45.90;;;;;;20829765;28;20142;-58
2022/09/21 20:29:20;;;;;;;7.22;3.65;;;25.00;46.60;;;;;;20829158;28;20452;-58
2022/09/21 20:39:22;;;;;;;7.72;4.28;;;25.00;46.40;;;;;;20828650;28;20054;-59
2022/09/21 20:49:23;;;;;;;35.33;26.00;;;24.90;46.50;;;;;;20828405;28;20504;-57
2022/09/21 20:59:26;;;;;;;7.60;4.53;;;24.70;47.10;;;;;;20829395;28;20129;-56
2022/09/21 21:09:28;;;;;;;9.80;5.78;;;24.70;47.40;;;;;;20827771;28;20314;-57
2022/09/21 21:19:31;;;;;;;9.30;4.80;;;24.50;47.90;;;;;;20830088;28;20607;-55
2022/09/21 21:29:32;;;;;;;6.05;4.13;;;24.30;47.60;;;;;;20842352;28;20053;-57
2022/09/21 21:39:34;;;;;;;7.07;5.17;;;24.30;46.80;;;;;;20841799;28;20292;-56
2022/09/21 21:49:36;;;;;;;5.55;3.38;;;24.00;47.50;;;;;;20840845;28;20458;-57
2022/09/21 21:59:38;;;;;;;6.35;3.90;;;24.00;48.70;;;;;;20840305;28;20509;-54
2022/09/21 22:09:40;;;;;;;5.23;3.90;;;23.90;49.10;;;;;;20840267;28;20080;-57
2022/09/21 22:19:42;;;;;;;5.88;4.30;;;23.80;49.30;;;;;;20838148;28;20055;-55
2022/09/21 22:29:44;;;;;;;5.47;4.03;;;23.70;49.80;;;;;;20838087;28;20053;-56
2022/09/21 22:39:46;;;;;;;4.90;4.03;;;23.50;50.30;;;;;;20835632;28;20144;-54
2022/09/21 22:49:47;;;;;;;5.70;3.60;;;23.40;50.90;;;;;;20836477;28;20453;-56
2022/09/21 22:59:49;;;;;;;4.90;3.75;;;23.30;50.50;;;;;;20836777;28;20045;-55
2022/09/21 23:09:50;;;;;;;4.97;3.60;;;23.30;50.20;;;;;;20834147;28;20413;-55
2022/09/21 23:19:52;;;;;;;7.65;5.13;;;23.20;50.30;;;;;;20833464;28;20478;-54
2022/09/21 23:29:55;;;;;;;4.78;3.45;;;23.10;50.60;;;;;;20832913;28;20053;-55
2022/09/21 23:39:57;;;;;;;3.90;3.30;;;23.10;50.70;;;;;;20831659;28;20057;-55
2022/09/21 23:49:59;;;;;;;4.10;3.28;;;22.90;51.30;;;;;;20831323;28;20057;-55
